Time;durP1;ratioP1;P1;durP2;ratioP2;P2;SDS_P1;SDS_P2;PMS_P1;PMS_P2;Temp;Humidity;BMP_temperature;BMP_pressure;BME280_temperature;BME280_humidity;BME280_pressure;Samples;Min_cycle;Max_cycle;Signal;HPM_P1;HPM_P2
2024/04/11 00:01:13;;;;;;;0.60;0.60;;;10.50;76.20;;;;;;11263376;26;20273;-79
2024/04/11 00:06:19;;;;;;;0.50;0.50;;;10.50;76.50;;;;;;11262468;26;20281;-78
2024/04/11 00:11:23;;;;;;;0.50;0.50;;;10.40;76.80;;;;;;11263734;26;20269;-78
2024/04/11 00:16:28;;;;;;;0.50;0.50;;;10.30;77.00;;;;;;11265839;26;20273;-79
2024/04/11 00:21:35;;;;;;;0.50;0.50;;;10.20;77.10;;;;;;11254953;26;20731;-80
2024/04/11 00:26:39;;;;;;;0.50;0.50;;;10.30;76.90;;;;;;11261529;26;20342;-79
2024/04/11 00:31:43;;;;;;;0.50;0.50;;;10.30;76.80;;;;;;11262619;26;20724;-79
2024/04/11 00:36:50;;;;;;;0.50;0.50;;;10.20;76.40;;;;;;11261949;26;20234;-79
2024/04/11 00:41:54;;;;;;;0.60;0.60;;;10.30;76.70;;;;;;11267266;26;20238;-79
2024/04/11 00:46:58;;;;;;;0.43;0.43;;;10.30;77.10;;;;;;11261518;26;20265;-79
2024/04/11 00:52:06;;;;;;;0.50;0.50;;;10.30;77.30;;;;;;11261169;26;20739;-79
2024/04/11 00:57:10;;;;;;;0.50;0.50;;;10.30;77.00;;;;;;11257665;26;20746;-77
2024/04/11 01:02:15;;;;;;;0.50;0.50;;;10.30;77.10;;;;;;11253421;26;20431;-80
2024/04/11 01:07:23;;;;;;;0.60;0.60;;;10.20;77.10;;;;;;11259764;26;20716;-79
2024/04/11 01:12:27;;;;;;;0.60;0.60;;;10.20;77.20;;;;;;11278098;26;20267;-78
2024/04/11 01:17:31;;;;;;;0.50;0.50;;;10.20;77.30;;;;;;11261256;26;20230;-79
2024/04/11 01:22:41;;;;;;;0.50;0.50;;;10.10;77.40;;;;;;11261472;26;20234;-78
2024/04/11 01:27:45;;;;;;;0.50;0.50;;;10.10;77.70;;;;;;11252215;26;20390;-80
2024/04/11 01:32:49;;;;;;;0.50;0.50;;;10.10;78.10;;;;;;11260582;26;20282;-77
2024/04/11 01:37:57;;;;;;;0.50;0.50;;;10.00;78.10;;;;;;11260332;26;20306;-77
2024/04/11 01:43:01;;;;;;;0.50;0.50;;;10.00;78.10;;;;;;11267317;26;20230;-79
2024/04/11 01:48:06;;;;;;;0.50;0.50;;;9.90;79.60;;;;;;11260569;26;20269;-77
2024/04/11 01:53:12;;;;;;;0.70;0.70;;;9.80;79.90;;;;;;11260014;26;20688;-78
2024/04/11 01:58:18;;;;;;;0.50;0.50;;;9.80;80.00;;;;;;11245265;26;20754;-78
2024/04/11 02:03:26;;;;;;;0.70;0.70;;;9.70;80.20;;;;;;11258029;26;20670;-78
2024/04/11 02:08:33;;;;;;;0.70;0.70;;;9.60;80.20;;;;;;11259702;26;21084;-79
2024/04/11 02:13:38;;;;;;;0.80;0.80;;;9.60;80.20;;;;;;11265554;26;20723;-78
2024/04/11 02:18:42;;;;;;;0.80;0.80;;;9.60;80.20;;;;;;11258358;26;20246;-77
2024/04/11 02:23:48;;;;;;;0.80;0.80;;;9.50;80.30;;;;;;11258997;26;20265;-77
2024/04/11 02:28:53;;;;;;;0.80;0.80;;;9.50;80.50;;;;;;11259112;26;20749;-78
2024/04/11 02:33:58;;;;;;;0.70;0.70;;;9.50;80.60;;;;;;11250498;26;20727;-78
2024/04/11 02:39:12;;;;;;;0.63;0.63;;;9.40;80.70;;;;;;11259349;21;20278;-78
2024/04/11 02:44:19;;;;;;;0.73;0.73;;;9.40;81.10;;;;;;11211943;26;20327;-78
2024/04/11 02:49:25;;;;;;;0.90;0.90;;;9.40;81.00;;;;;;11259996;26;20245;-77
2024/04/11 02:54:32;;;;;;;0.50;0.50;;;9.40;81.20;;;;;;11326384;26;20324;-76
2024/04/11 02:59:36;;;;;;;0.60;0.60;;;9.30;81.10;;;;;;11310288;26;20312;-77
2024/04/11 03:04:42;;;;;;;1.03;1.03;;;9.30;81.10;;;;;;11324738;26;20276;-77
2024/04/11 03:09:48;;;;;;;0.90;0.90;;;9.20;81.20;;;;;;11277391;26;20241;-77
2024/04/11 03:14:53;;;;;;;0.80;0.80;;;9.20;81.50;;;;;;11323599;26;20264;-78
2024/04/11 03:19:57;;;;;;;0.97;0.97;;;9.10;81.70;;;;;;11313847;26;20276;-76
2024/04/11 03:25:04;;;;;;;0.90;0.90;;;9.10;81.70;;;;;;11307233;26;20264;-76
2024/04/11 03:30:09;;;;;;;0.67;0.67;;;9.10;81.60;;;;;;11323194;26;20730;-78
2024/04/11 03:35:13;;;;;;;0.70;0.70;;;9.10;81.50;;;;;;11310973;26;20238;-76
2024/04/11 03:40:20;;;;;;;0.90;0.90;;;9.00;81.60;;;;;;11291036;26;20246;-78
2024/04/11 03:45:26;;;;;;;0.80;0.80;;;9.00;81.90;;;;;;11274725;26;20226;-78
2024/04/11 03:50:31;;;;;;;0.80;0.80;;;9.00;82.40;;;;;;11291787;26;20264;-78
2024/04/11 03:55:47;;;;;;;0.70;0.70;;;9.10;82.40;;;;;;11273196;26;20323;-78
2024/04/11 04:00:51;;;;;;;0.80;0.80;;;9.10;82.20;;;;;;11286731;26;20241;-78
2024/04/11 04:05:56;;;;;;;0.40;0.40;;;9.10;82.20;;;;;;11320011;26;20673;-76
2024/04/11 04:11:02;;;;;;;0.80;0.80;;;9.10;82.40;;;;;;11297925;26;20270;-77
2024/04/11 04:16:10;;;;;;;0.83;0.83;;;9.10;82.10;;;;;;11323614;26;20241;-78
2024/04/11 04:21:16;;;;;;;0.90;0.90;;;9.00;81.90;;;;;;11340157;26;20651;-77
2024/04/11 04:26:26;;;;;;;0.63;0.63;;;9.00;81.90;;;;;;11300643;26;20246;-78
2024/04/11 04:31:31;;;;;;;1.00;1.00;;;9.00;82.10;;;;;;11328097;26;20241;-77
2024/04/11 04:36:40;;;;;;;0.90;0.90;;;8.90;82.30;;;;;;11330489;26;20267;-78
2024/04/11 04:41:47;;;;;;;0.80;0.80;;;8.90;82.30;;;;;;11305763;26;20234;-76
2024/04/11 04:46:51;;;;;;;0.87;0.87;;;8.80;82.30;;;;;;11333653;26;20336;-76
2024/04/11 04:51:57;;;;;;;0.70;0.70;;;8.80;82.60;;;;;;11289629;26;20719;-75
2024/04/11 04:57:04;;;;;;;0.60;0.60;;;8.70;82.60;;;;;;11311549;26;20238;-77
2024/04/11 05:02:09;;;;;;;0.60;0.60;;;8.70;82.80;;;;;;11333431;26;20333;-77
2024/04/11 05:07:13;;;;;;;0.60;0.60;;;8.80;82.70;;;;;;11301663;26;20277;-77
2024/04/11 05:12:19;;;;;;;0.57;0.57;;;8.70;82.90;;;;;;11277209;26;20762;-76
2024/04/11 05:17:26;;;;;;;0.80;0.80;;;8.80;83.00;;;;;;11278714;26;20230;-77
2024/04/11 05:22:31;;;;;;;0.63;0.63;;;8.80;82.90;;;;;;11334312;26;20333;-77
2024/04/11 05:27:37;;;;;;;0.57;0.57;;;8.90;82.90;;;;;;11351837;26;20344;-77
2024/04/11 05:32:43;;;;;;;0.53;0.53;;;8.90;82.90;;;;;;11255299;26;20246;-76
2024/04/11 05:37:47;;;;;;;0.50;0.50;;;8.90;82.60;;;;;;11313081;26;20292;-77
2024/04/11 05:42:54;;;;;;;0.40;0.40;;;9.00;82.90;;;;;;11300115;26;20738;-76
2024/04/11 05:47:58;;;;;;;0.70;0.70;;;9.00;83.30;;;;;;11326502;26;20245;-77
2024/04/11 05:53:02;;;;;;;0.50;0.50;;;9.10;83.00;;;;;;11319033;26;20722;-76
2024/04/11 05:58:09;;;;;;;0.60;0.60;;;9.10;82.80;;;;;;11289923;26;20277;-76
2024/04/11 06:03:14;;;;;;;0.60;0.60;;;9.20;83.00;;;;;;11237474;26;20230;-76
2024/04/11 06:08:19;;;;;;;0.60;0.60;;;9.30;83.60;;;;;;11251614;26;20746;-76
2024/04/11 06:13:27;;;;;;;0.60;0.60;;;9.40;83.40;;;;;;11251497;26;20238;-76
2024/04/11 06:18:34;;;;;;;0.50;0.50;;;9.50;83.30;;;;;;11244494;26;20349;-77
2024/04/11 06:23:38;;;;;;;0.60;0.60;;;9.60;83.30;;;;;;11250847;26;20582;-76
2024/04/11 06:28:45;;;;;;;0.90;0.90;;;9.70;83.20;;;;;;11244941;26;20245;-77
2024/04/11 06:33:49;;;;;;;0.70;0.70;;;9.80;82.80;;;;;;11244155;26;20230;-77
2024/04/11 06:38:53;;;;;;;0.70;0.70;;;9.90;82.70;;;;;;11254000;26;20662;-77
2024/04/11 06:44:00;;;;;;;0.70;0.70;;;10.00;82.00;;;;;;11271639;26;20651;-76
2024/04/11 06:49:04;;;;;;;0.70;0.70;;;10.10;81.80;;;;;;11306671;26;20240;-76
2024/04/11 06:54:09;;;;;;;0.70;0.70;;;10.20;82.40;;;;;;11292485;26;20408;-76
2024/04/11 06:59:17;;;;;;;0.93;0.93;;;10.30;81.70;;;;;;11310236;26;20242;-78
2024/04/11 07:04:21;;;;;;;0.90;0.90;;;10.50;81.80;;;;;;11333679;26;20806;-77
2024/04/11 07:09:37;;;;;;;0.90;0.90;;;10.60;82.00;;;;;;11315333;26;20233;-77
2024/04/11 07:14:44;;;;;;;0.87;0.87;;;10.80;81.90;;;;;;11275719;26;20240;-77
2024/04/11 07:19:48;;;;;;;0.80;0.80;;;11.00;81.50;;;;;;11308649;26;20238;-77
2024/04/11 07:24:53;;;;;;;1.10;1.10;;;11.10;81.80;;;;;;11336333;26;20666;-77
2024/04/11 07:30:01;;;;;;;0.40;0.40;;;11.20;80.90;;;;;;11321864;26;20626;-77
2024/04/11 07:35:06;;;;;;;0.50;0.50;;;11.40;80.70;;;;;;11291502;26;20233;-77
2024/04/11 07:40:27;;;;;;;0.50;0.50;;;11.50;80.90;;;;;;11305593;26;20230;-77
2024/04/11 07:45:36;;;;;;;0.60;0.60;;;11.60;80.90;;;;;;11275506;26;20264;-77
2024/04/11 07:50:44;;;;;;;0.50;0.50;;;11.70;80.80;;;;;;11294090;26;20238;-77
2024/04/11 07:55:49;;;;;;;0.50;0.50;;;11.80;80.40;;;;;;11287408;26;20819;-76
2024/04/11 08:00:56;;;;;;;0.50;0.50;;;12.00;80.00;;;;;;11319421;26;20617;-77
2024/04/11 08:06:00;;;;;;;0.50;0.50;;;12.10;79.00;;;;;;11291448;26;20237;-78
2024/04/11 08:11:06;;;;;;;0.40;0.40;;;12.40;77.60;;;;;;11305095;26;20627;-77
2024/04/11 08:16:13;;;;;;;0.50;0.50;;;12.50;78.30;;;;;;11348763;26;20240;-77
2024/04/11 08:21:17;;;;;;;0.70;0.70;;;12.80;77.70;;;;;;11338166;26;20255;-77
2024/04/11 08:26:21;;;;;;;0.50;0.50;;;12.90;77.50;;;;;;11283965;26;20253;-77
2024/04/11 08:31:30;;;;;;;0.40;0.40;;;13.10;77.20;;;;;;11284730;26;20237;-77
2024/04/11 08:36:34;;;;;;;0.40;0.40;;;13.30;76.20;;;;;;11301270;21;20303;-82
2024/04/11 08:41:38;;;;;;;0.60;0.60;;;13.50;75.70;;;;;;11207954;26;20729;-82
2024/04/11 08:46:45;;;;;;;0.50;0.50;;;13.60;76.70;;;;;;11241563;26;20237;-81
2024/04/11 08:51:50;;;;;;;0.50;0.50;;;13.80;77.00;;;;;;11316182;26;20313;-79
2024/04/11 08:56:54;;;;;;;0.80;0.80;;;14.00;76.50;;;;;;11313510;26;20245;-78
2024/04/11 09:02:04;;;;;;;0.50;0.50;;;14.20;74.80;;;;;;11306212;26;20236;-81
2024/04/11 09:07:20;;;;;;;0.70;0.70;;;14.30;73.90;;;;;;11300824;26;20280;-80
2024/04/11 09:12:27;;;;;;;0.63;0.63;;;14.50;72.90;;;;;;11295559;26;20350;-81
2024/04/11 09:17:43;;;;;;;0.80;0.80;;;14.60;69.80;;;;;;11275322;26;20249;-79
2024/04/11 09:22:50;;;;;;;0.60;0.60;;;14.80;71.20;;;;;;11288130;26;20244;-79
2024/04/11 09:27:58;;;;;;;0.60;0.60;;;14.90;71.30;;;;;;11305635;26;20237;-81
2024/04/11 09:33:09;;;;;;;0.60;0.60;;;15.00;74.40;;;;;;11278213;26;21002;-82
2024/04/11 09:38:15;;;;;;;0.50;0.50;;;15.20;68.50;;;;;;11269449;26;20652;-80
2024/04/11 09:43:19;;;;;;;0.70;0.70;;;;;;;;;;11230324;26;20325;-78
2024/04/11 09:48:31;;;;;;;0.70;0.70;;;15.60;64.60;;;;;;11308496;26;20244;-79
2024/04/11 09:53:36;;;;;;;0.80;0.80;;;16.00;65.10;;;;;;11298649;26;20572;-79
2024/04/11 09:58:42;;;;;;;0.70;0.70;;;16.30;65.00;;;;;;11300512;26;20244;-80
2024/04/11 10:03:49;;;;;;;0.70;0.70;;;16.60;64.00;;;;;;11264646;26;20245;-80
2024/04/11 10:08:53;;;;;;;0.70;0.70;;;17.00;61.70;;;;;;11279416;26;20242;-80
2024/04/11 10:14:05;;;;;;;0.80;0.80;;;17.20;60.90;;;;;;11279584;26;20257;-81
2024/04/11 10:19:14;;;;;;;0.90;0.90;;;17.20;60.90;;;;;;11243447;26;20354;-77
2024/04/11 10:24:23;;;;;;;0.90;0.90;;;17.00;60.40;;;;;;11279565;26;20244;-78
2024/04/11 10:29:28;;;;;;;0.70;0.70;;;16.80;59.70;;;;;;11282147;26;20233;-80
2024/04/11 10:34:37;;;;;;;0.90;0.90;;;16.50;59.80;;;;;;11308369;26;20242;-80
2024/04/11 10:39:42;;;;;;;0.70;0.70;;;16.30;61.30;;;;;;11298534;26;20325;-83
2024/04/11 10:44:46;;;;;;;0.70;0.70;;;16.20;60.90;;;;;;11345885;26;20258;-78
2024/04/11 10:49:55;;;;;;;0.80;0.80;;;16.10;60.10;;;;;;11274213;26;20233;-79
2024/04/11 10:55:12;;;;;;;0.80;0.80;;;16.00;59.60;;;;;;11291699;26;20762;-79
2024/04/11 11:00:22;;;;;;;1.00;1.00;;;15.90;58.70;;;;;;11304066;26;20337;-81
2024/04/11 11:05:30;;;;;;;1.00;1.00;;;15.90;56.80;;;;;;11304282;26;20314;-82
2024/04/11 11:10:34;;;;;;;0.80;0.80;;;15.80;57.50;;;;;;11321459;26;20236;-81
2024/04/11 11:15:38;;;;;;;0.80;0.80;;;15.80;57.70;;;;;;11363735;26;20675;-78
2024/04/11 11:20:47;;;;;;;0.70;0.70;;;15.80;58.50;;;;;;11308019;26;20785;-79
2024/04/11 11:25:51;;;;;;;0.80;0.80;;;15.80;57.60;;;;;;11302284;26;20238;-79
2024/04/11 11:30:56;;;;;;;1.00;1.00;;;15.70;59.00;;;;;;11318500;26;20345;-82
2024/04/11 11:36:04;;;;;;;0.70;0.70;;;15.70;57.90;;;;;;11296430;26;20232;-80
2024/04/11 11:41:15;;;;;;;0.60;0.60;;;15.70;58.80;;;;;;11327842;26;20244;-80
2024/04/11 11:46:27;;;;;;;0.80;0.80;;;15.70;59.70;;;;;;11346406;26;20326;-78
2024/04/11 11:51:34;;;;;;;0.70;0.70;;;15.70;58.00;;;;;;11323461;26;20633;-80
2024/04/11 11:56:39;;;;;;;0.70;0.70;;;15.70;57.80;;;;;;11304628;26;20236;-80
2024/04/11 12:01:51;;;;;;;0.60;0.60;;;15.70;59.10;;;;;;11323803;26;20241;-79
2024/04/11 12:07:00;;;;;;;0.80;0.80;;;15.70;58.70;;;;;;11309817;26;20245;-80
2024/04/11 12:12:20;;;;;;;0.70;0.70;;;15.80;58.60;;;;;;11319814;26;20396;-79
2024/04/11 12:17:28;;;;;;;0.70;0.70;;;15.90;57.30;;;;;;11335669;26;20268;-82
2024/04/11 12:22:36;;;;;;;0.60;0.60;;;15.80;58.00;;;;;;11329743;26;20707;-79
2024/04/11 12:27:40;;;;;;;0.70;0.70;;;15.90;58.30;;;;;;11311982;26;20244;-80
2024/04/11 12:32:45;;;;;;;0.70;0.70;;;15.90;58.30;;;;;;11315093;26;20229;-79
2024/04/11 12:37:54;;;;;;;0.80;0.80;;;16.00;57.90;;;;;;11335291;26;20246;-81
2024/04/11 12:42:58;;;;;;;0.70;0.70;;;16.10;57.30;;;;;;11323794;26;20662;-80
2024/04/11 12:48:05;;;;;;;0.70;0.70;;;16.10;57.30;;;;;;11332611;26;20245;-80
2024/04/11 12:53:13;;;;;;;0.60;0.60;;;16.20;58.10;;;;;;11341437;26;20274;-80
2024/04/11 12:58:19;;;;;;;0.90;0.90;;;16.20;57.80;;;;;;11335862;26;20580;-80
2024/04/11 13:03:34;;;;;;;0.90;0.90;;;16.20;56.60;;;;;;11332051;26;20234;-80
2024/04/11 13:08:41;;;;;;;0.90;0.90;;;16.30;57.10;;;;;;11306402;26;20588;-79
2024/04/11 13:13:49;;;;;;;0.97;0.97;;;16.30;57.40;;;;;;11310183;26;20325;-79
2024/04/11 13:18:53;;;;;;;1.00;1.00;;;16.50;56.70;;;;;;11330287;26;20263;-80
2024/04/11 13:24:00;;;;;;;0.70;0.70;;;16.50;56.70;;;;;;11322686;26;20229;-80
2024/04/11 13:29:07;;;;;;;0.80;0.80;;;16.60;55.90;;;;;;11300891;26;20261;-79
2024/04/11 13:34:19;;;;;;;0.90;0.90;;;16.60;57.40;;;;;;11320510;26;20242;-80
2024/04/11 13:39:29;;;;;;;0.80;0.80;;;16.60;57.30;;;;;;11293938;26;20790;-81
2024/04/11 13:44:35;;;;;;;0.80;0.80;;;16.70;55.90;;;;;;11315029;26;20221;-79
2024/04/11 13:49:57;;;;;;;0.90;0.90;;;16.80;55.60;;;;;;11344106;26;20364;-78
2024/04/11 13:55:04;;;;;;;0.80;0.80;;;16.90;55.30;;;;;;11320146;26;20257;-78
2024/04/11 14:00:10;;;;;;;0.77;0.77;;;17.00;55.70;;;;;;11289872;26;20342;-79
2024/04/11 14:05:29;;;;;;;0.73;0.73;;;17.10;55.00;;;;;;11319405;26;20266;-78
2024/04/11 14:10:36;;;;;;;0.63;0.63;;;17.00;56.60;;;;;;11317257;26;20280;-79
2024/04/11 14:15:43;;;;;;;0.70;0.70;;;16.90;57.10;;;;;;11322376;26;20240;-78
2024/04/11 14:20:50;;;;;;;0.90;0.90;;;16.90;56.90;;;;;;11346210;26;20267;-76
2024/04/11 14:26:06;;;;;;;0.90;0.90;;;16.90;58.00;;;;;;11306765;26;20233;-78
2024/04/11 14:31:17;;;;;;;0.70;0.70;;;17.00;58.30;;;;;;11282486;26;20470;-79
2024/04/11 14:36:30;;;;;;;0.70;0.70;;;17.00;58.30;;;;;;11279211;26;20222;-78
2024/04/11 14:41:38;;;;;;;0.80;0.80;;;17.00;57.10;;;;;;11279508;26;20237;-79
2024/04/11 14:46:42;;;;;;;0.57;0.57;;;17.10;57.70;;;;;;11329831;26;20232;-80
2024/04/11 14:51:53;;;;;;;0.60;0.60;;;17.10;59.50;;;;;;11351718;26;20315;-78
2024/04/11 14:57:01;;;;;;;0.67;0.67;;;17.20;55.90;;;;;;11342606;26;20232;-79
2024/04/11 15:02:06;;;;;;;0.60;0.60;;;17.40;55.20;;;;;;11349339;26;20268;-78
2024/04/11 15:07:10;;;;;;;0.70;0.70;;;17.50;57.50;;;;;;11301186;26;20280;-79
2024/04/11 15:12:17;;;;;;;0.50;0.50;;;17.60;58.30;;;;;;11279966;26;20269;-79
2024/04/11 15:17:25;;;;;;;0.50;0.50;;;17.60;55.30;;;;;;11189491;26;20274;-79
2024/04/11 15:22:35;;;;;;;0.60;0.60;;;17.70;56.30;;;;;;11269567;26;20799;-80
2024/04/11 15:27:49;;;;;;;0.50;0.50;;;17.70;56.60;;;;;;11220108;26;20292;-79
2024/04/11 15:32:56;;;;;;;0.70;0.70;;;17.80;56.90;;;;;;11227959;26;20231;-80
2024/04/11 15:38:16;;;;;;;0.50;0.50;;;17.80;56.10;;;;;;11223430;26;20282;-79
2024/04/11 15:43:26;;;;;;;0.53;0.53;;;17.80;56.70;;;;;;11284440;26;20683;-81
2024/04/11 15:48:35;;;;;;;0.80;0.80;;;17.80;57.60;;;;;;11205062;26;20227;-80
2024/04/11 15:53:39;;;;;;;0.60;0.60;;;17.80;58.40;;;;;;11249432;26;20238;-79
2024/04/11 15:58:55;;;;;;;0.60;0.60;;;17.80;55.90;;;;;;11266686;26;20278;-80
2024/04/11 16:03:59;;;;;;;0.70;0.70;;;17.70;59.90;;;;;;11251215;26;20708;-80
2024/04/11 16:09:11;;;;;;;0.90;0.90;;;17.70;57.30;;;;;;11254864;26;20240;-81
2024/04/11 16:14:23;;;;;;;0.70;0.70;;;17.80;56.30;;;;;;11256466;26;20264;-79
2024/04/11 16:19:30;;;;;;;0.60;0.60;;;17.90;56.30;;;;;;11289963;26;20240;-78
2024/04/11 16:24:48;;;;;;;0.80;0.80;;;17.90;55.40;;;;;;11267198;26;20711;-78
2024/04/11 16:29:59;;;;;;;0.73;0.73;;;17.90;55.40;;;;;;11283203;26;20265;-79
2024/04/11 16:35:04;;;;;;;0.70;0.70;;;17.80;56.00;;;;;;11245731;26;20225;-79
2024/04/11 16:40:23;;;;;;;0.80;0.80;;;17.60;58.80;;;;;;11252256;26;20330;-80
2024/04/11 16:45:34;;;;;;;0.70;0.70;;;17.50;59.80;;;;;;11264233;26;20226;-79
2024/04/11 16:50:45;;;;;;;0.60;0.60;;;17.30;57.00;;;;;;11291242;26;20279;-79
2024/04/11 16:55:54;;;;;;;0.70;0.70;;;17.20;58.30;;;;;;11277736;26;20265;-78
2024/04/11 17:01:07;;;;;;;0.70;0.70;;;17.10;57.20;;;;;;11293441;26;20228;-80
2024/04/11 17:06:14;;;;;;;0.60;0.60;;;17.00;61.20;;;;;;11283892;26;20796;-78
2024/04/11 17:11:21;;;;;;;0.77;0.77;;;16.90;57.50;;;;;;11278607;26;20236;-79
2024/04/11 17:21:54;;;;;;;1.10;1.10;;;16.70;59.70;;;;;;11275660;26;20607;-79
2024/04/11 17:26:58;;;;;;;1.00;1.00;;;16.70;59.90;;;;;;11271313;26;20235;-79
2024/04/11 17:32:12;;;;;;;0.70;0.70;;;16.60;60.10;;;;;;11281194;26;20268;-79
2024/04/11 17:37:17;;;;;;;0.87;0.87;;;16.60;58.00;;;;;;11263140;26;20736;-78
2024/04/11 17:42:23;;;;;;;1.10;1.10;;;16.50;58.70;;;;;;11279899;26;20264;-79
2024/04/11 17:47:38;;;;;;;0.80;0.80;;;16.40;58.60;;;;;;11220543;26;20243;-78
2024/04/11 17:52:50;;;;;;;0.80;0.80;;;16.40;60.40;;;;;;11278223;26;20276;-79
2024/04/11 17:57:55;;;;;;;1.10;1.10;;;16.20;62.80;;;;;;11270306;26;20234;-78
2024/04/11 18:03:06;;;;;;;1.10;1.10;;;16.10;63.50;;;;;;11275318;26;20243;-79
2024/04/11 18:08:11;;;;;;;1.10;1.10;;;16.00;61.70;;;;;;11248905;26;20281;-77
2024/04/11 18:13:21;;;;;;;0.90;0.90;;;16.00;62.20;;;;;;11224538;26;20238;-76
2024/04/11 18:18:28;;;;;;;0.70;0.70;;;15.90;62.90;;;;;;11276581;26;20697;-76
2024/04/11 18:23:32;;;;;;;1.00;1.00;;;15.70;63.40;;;;;;11221722;26;20596;-79
2024/04/11 18:28:38;;;;;;;1.00;1.00;;;15.50;64.00;;;;;;11256050;26;20338;-79
2024/04/11 18:33:47;;;;;;;0.80;0.80;;;15.40;64.00;;;;;;11250003;26;20238;-79
2024/04/11 18:38:51;;;;;;;0.90;0.90;;;15.20;64.30;;;;;;11251356;26;20243;-77
2024/04/11 18:43:58;;;;;;;0.90;0.90;;;15.20;64.50;;;;;;11252790;26;20242;-76
2024/04/11 18:49:17;;;;;;;0.93;0.93;;;15.00;65.10;;;;;;11264037;26;20338;-76
2024/04/11 18:54:22;;;;;;;1.00;1.00;;;14.80;65.70;;;;;;11252340;26;20794;-80
2024/04/11 18:59:33;;;;;;;1.10;1.10;;;14.70;66.20;;;;;;11276452;26;20241;-77
2024/04/11 19:04:46;;;;;;;1.00;1.00;;;14.70;66.50;;;;;;11263101;26;20332;-81
2024/04/11 19:09:58;;;;;;;1.00;1.00;;;14.60;66.80;;;;;;11261552;26;20229;-80
2024/04/11 19:15:06;;;;;;;1.00;1.00;;;14.50;66.90;;;;;;11274803;26;20237;-76
2024/04/11 19:20:23;;;;;;;0.80;0.80;;;14.40;67.60;;;;;;11235010;26;20719;-76
2024/04/11 19:25:28;;;;;;;0.90;0.90;;;14.40;68.40;;;;;;11275672;26;20241;-76
2024/04/11 19:30:36;;;;;;;0.80;0.80;;;14.30;68.40;;;;;;11283929;26;20772;-77
2024/04/11 19:35:49;;;;;;;0.90;0.90;;;14.20;68.60;;;;;;11264337;26;20268;-76
2024/04/11 19:40:56;;;;;;;1.10;1.10;;;14.10;68.70;;;;;;11233639;26;20234;-76
2024/04/11 19:46:06;;;;;;;1.00;1.00;;;14.00;69.00;;;;;;11267474;26;20226;-77
2024/04/11 19:51:23;;;;;;;0.90;0.90;;;14.00;69.30;;;;;;11262797;26;20245;-78
2024/04/11 19:56:33;;;;;;;0.90;0.90;;;13.90;69.80;;;;;;11261483;26;20264;-77
2024/04/11 20:01:45;;;;;;;1.00;1.00;;;13.90;70.00;;;;;;11285869;26;20402;-77
2024/04/11 20:06:58;;;;;;;0.83;0.83;;;13.80;70.10;;;;;;11271823;26;20985;-76
2024/04/11 20:12:11;;;;;;;0.90;0.90;;;13.80;70.90;;;;;;11249193;26;20256;-78
2024/04/11 20:17:28;;;;;;;0.90;0.90;;;13.80;71.00;;;;;;11274274;26;20245;-80
2024/04/11 20:22:35;;;;;;;0.80;0.80;;;13.80;71.30;;;;;;11290060;26;20338;-78
2024/04/11 20:27:41;;;;;;;0.90;0.90;;;13.70;71.30;;;;;;11267433;26;20234;-79
2024/04/11 20:32:47;;;;;;;1.00;1.00;;;13.60;71.80;;;;;;11256370;26;20229;-77
2024/04/11 20:37:56;;;;;;;0.90;0.90;;;13.60;72.20;;;;;;11301642;26;20273;-78
2024/04/11 20:43:06;;;;;;;0.70;0.70;;;13.50;72.50;;;;;;11267756;26;20278;-78
2024/04/11 20:48:31;;;;;;;0.80;0.80;;;13.40;72.70;;;;;;11275852;26;20276;-80
2024/04/11 21:36:35;;;;;;;0.60;0.60;;;13.00;74.30;;;;;;11177326;26;20319;-76
2024/04/11 21:41:49;;;;;;;0.70;0.70;;;13.00;74.40;;;;;;11205837;26;20239;-79
2024/04/11 21:46:54;;;;;;;0.60;0.60;;;13.00;74.60;;;;;;11208747;26;20336;-77
2024/04/11 21:52:04;;;;;;;0.70;0.70;;;13.00;75.00;;;;;;11178434;26;20230;-77
2024/04/11 21:57:11;;;;;;;0.70;0.70;;;12.90;74.80;;;;;;11207334;26;20648;-77
2024/04/11 22:02:21;;;;;;;0.50;0.50;;;12.90;75.70;;;;;;11208961;26;20230;-77
2024/04/11 22:07:25;;;;;;;0.60;0.60;;;12.90;75.10;;;;;;11204822;26;20764;-77
2024/04/11 22:12:32;;;;;;;0.40;0.40;;;12.80;75.40;;;;;;11180857;26;20624;-77
2024/04/11 22:17:36;;;;;;;0.60;0.60;;;12.80;75.70;;;;;;11203972;26;20242;-77
2024/04/11 22:22:44;;;;;;;0.60;0.60;;;12.80;75.50;;;;;;11204131;26;20697;-77
2024/04/11 22:27:51;;;;;;;0.60;0.60;;;12.80;75.50;;;;;;11194035;26;20235;-77
2024/04/11 22:33:00;;;;;;;0.60;0.60;;;12.70;75.80;;;;;;11202483;26;20243;-77
2024/04/11 22:38:08;;;;;;;0.70;0.70;;;12.70;75.80;;;;;;11194294;26;20242;-77
2024/04/11 22:43:15;;;;;;;0.70;0.70;;;12.60;75.80;;;;;;11172331;26;20327;-77
2024/04/11 22:48:21;;;;;;;0.80;0.80;;;12.60;76.10;;;;;;11171306;26;20347;-77
2024/04/11 22:53:30;;;;;;;0.70;0.70;;;12.50;76.10;;;;;;11201974;26;20242;-77
2024/04/11 22:58:39;;;;;;;0.60;0.60;;;12.50;76.30;;;;;;11174848;26;20243;-77
2024/04/11 23:03:44;;;;;;;0.60;0.60;;;12.40;76.40;;;;;;11202666;26;20246;-77
2024/04/11 23:08:49;;;;;;;0.63;0.63;;;12.30;76.60;;;;;;11201269;26;20717;-77
2024/04/11 23:13:56;;;;;;;0.70;0.70;;;12.30;76.80;;;;;;11201209;26;20285;-78
2024/04/11 23:19:14;;;;;;;0.60;0.60;;;12.30;76.90;;;;;;11201537;26;20328;-77
2024/04/11 23:24:21;;;;;;;0.60;0.60;;;12.20;76.90;;;;;;11199662;26;20226;-77
2024/04/11 23:29:34;;;;;;;0.67;0.67;;;12.20;77.00;;;;;;11200665;26;20266;-77
2024/04/11 23:34:38;;;;;;;0.50;0.50;;;12.20;77.40;;;;;;11200050;26;20354;-77
2024/04/11 23:39:42;;;;;;;0.60;0.60;;;12.10;77.40;;;;;;11193825;26;20239;-77
2024/04/11 23:44:54;;;;;;;0.70;0.70;;;12.10;77.40;;;;;;11204067;26;20844;-77
2024/04/11 23:50:08;;;;;;;0.70;0.70;;;12.10;77.80;;;;;;11202251;26;20647;-77
2024/04/11 23:55:22;;;;;;;0.50;0.50;;;12.10;78.00;;;;;;11201355;26;20242;-77
